createdAt,value
2022-11-05T00:00:50.583Z,22.52
2022-11-05T00:03:38.666Z,23.27
2022-11-05T00:06:30.722Z,22.62
2022-11-05T00:09:20.977Z,23.77
2022-11-05T00:12:10.053Z,22.65
2022-11-05T00:15:00.909Z,21.25
2022-11-05T00:17:35.589Z,22.52
2022-11-05T00:20:16.181Z,23.33
2022-11-05T00:23:06.238Z,21.75
2022-11-05T00:25:37.994Z,22.55
2022-11-05T00:28:05.920Z,23.50
2022-11-05T00:30:40.968Z,23.30
2022-11-05T00:33:10.481Z,18.45
2022-11-05T00:35:42.722Z,22.87
2022-11-05T00:38:13.790Z,21.45
2022-11-05T00:40:44.782Z,21.33
2022-11-05T00:43:51.723Z,22.45
2022-11-05T00:46:23.726Z,22.70
2022-11-05T00:49:29.815Z,22.67
2022-11-05T00:52:18.679Z,21.27
2022-11-05T00:54:47.063Z,22.35
2022-11-05T00:57:18.371Z,22.55
2022-11-05T00:59:47.460Z,22.87
2022-11-05T01:02:22.155Z,22.00
2022-11-05T01:04:52.103Z,23.67
2022-11-05T01:07:21.716Z,20.27
2022-11-05T01:09:59.573Z,20.15
2022-11-05T01:12:29.621Z,22.75
2022-11-05T01:14:59.680Z,23.20
2022-11-05T01:17:28.489Z,22.62
2022-11-05T01:19:59.712Z,18.25
2022-11-05T01:22:31.010Z,18.05
2022-11-05T01:25:05.491Z,20.40
2022-11-05T01:27:40.428Z,21.48
2022-11-05T01:30:13.780Z,21.27
2022-11-05T01:32:44.696Z,24.42
2022-11-05T01:35:16.609Z,16.77
2022-11-05T01:37:51.797Z,19.05
2022-11-05T01:40:25.450Z,22.37
2022-11-05T01:42:54.485Z,21.33
2022-11-05T01:45:32.011Z,19.52
2022-11-05T01:48:05.435Z,18.45
2022-11-05T01:50:54.596Z,17.65
2022-11-05T01:53:38.375Z,21.45
2022-11-05T01:56:16.417Z,19.35
2022-11-05T01:59:14.937Z,16.85
2022-11-05T02:02:11.539Z,20.77
2022-11-05T02:04:58.279Z,23.27
2022-11-05T02:07:32.492Z,18.48
2022-11-05T02:10:07.798Z,19.95
2022-11-05T02:12:56.142Z,16.50
2022-11-05T02:16:08.968Z,15.73
2022-11-05T02:19:18.850Z,21.62
2022-11-05T02:22:15.372Z,17.10
2022-11-05T02:25:25.870Z,21.62
2022-11-05T02:28:01.511Z,20.85
2022-11-05T02:30:54.656Z,21.30
2022-11-05T02:33:35.813Z,21.98
2022-11-05T02:36:40.405Z,20.42
2022-11-05T02:39:52.300Z,20.37
2022-11-05T02:42:52.400Z,20.65
2022-11-05T02:45:23.306Z,19.30
2022-11-05T02:48:20.738Z,17.25
2022-11-05T02:51:17.451Z,21.67
2022-11-05T02:54:07.516Z,19.12
2022-11-05T02:56:42.953Z,20.42
2022-11-05T02:59:14.953Z,22.17
2022-11-05T03:04:21.002Z,21.08
2022-11-05T03:07:08.872Z,19.45
2022-11-05T03:10:05.524Z,22.30
2022-11-05T03:13:30.958Z,19.40
2022-11-05T03:16:12.264Z,19.33
2022-11-05T03:19:14.672Z,18.02
2022-11-05T03:21:54.634Z,20.62
2022-11-05T03:24:37.534Z,23.25
2022-11-05T03:27:17.483Z,25.58
2022-11-05T03:29:55.133Z,18.73
2022-11-05T03:32:28.108Z,20.42
2022-11-05T03:35:25.484Z,20.88
2022-11-05T03:38:01.033Z,20.48
2022-11-05T03:40:35.925Z,24.50
2022-11-05T03:43:10.729Z,19.83
2022-11-05T03:46:07.703Z,21.40
2022-11-05T03:48:46.693Z,18.55
2022-11-05T03:51:22.101Z,19.05
2022-11-05T03:53:58.995Z,19.55
2022-11-05T03:57:23.965Z,20.52
2022-11-05T04:00:22.703Z,16.67
2022-11-05T04:03:36.718Z,17.45
2022-11-05T04:06:43.306Z,19.90
2022-11-05T04:09:50.532Z,18.12
2022-11-05T04:12:39.136Z,17.60
2022-11-05T04:15:08.145Z,22.75
2022-11-05T04:17:59.032Z,18.95
2022-11-05T04:20:49.380Z,19.08
2022-11-05T04:23:36.106Z,17.75
2022-11-05T04:26:04.165Z,16.15
2022-11-05T04:28:51.968Z,15.88
2022-11-05T04:31:20.256Z,11.77
2022-11-05T04:33:47.881Z,14.07
2022-11-05T04:36:15.507Z,16.17
2022-11-05T04:38:43.615Z,21.48
2022-11-05T04:41:16.659Z,16.65
2022-11-05T04:43:44.901Z,16.35
2022-11-05T04:46:12.851Z,20.73
2022-11-05T04:48:40.598Z,16.70
2022-11-05T04:51:08.844Z,14.70
2022-11-05T04:53:36.701Z,17.65
2022-11-05T04:56:19.633Z,19.75
2022-11-05T04:58:48.315Z,22.70
2022-11-05T05:01:21.773Z,15.45
2022-11-05T05:03:51.731Z,15.98
2022-11-05T05:06:19.399Z,17.35
2022-11-05T05:08:48.958Z,19.98
2022-11-05T05:11:19.620Z,14.82
2022-11-05T05:13:48.136Z,17.70
2022-11-05T05:16:21.149Z,18.87
2022-11-05T05:18:49.784Z,15.30
2022-11-05T05:21:37.899Z,20.15
2022-11-05T05:24:12.438Z,20.23
2022-11-05T05:26:46.251Z,18.37
2022-11-05T05:29:14.772Z,23.15
2022-11-05T05:31:42.984Z,19.30
2022-11-05T05:34:12.942Z,16.75
2022-11-05T05:36:41.202Z,16.75
2022-11-05T05:39:11.138Z,16.42
2022-11-05T05:41:38.977Z,15.63
2022-11-05T05:44:07.233Z,16.67
2022-11-05T05:46:35.066Z,15.43
2022-11-05T05:49:05.501Z,15.52
2022-11-05T05:51:37.436Z,17.80
2022-11-05T05:54:05.780Z,14.10
2022-11-05T05:56:33.465Z,17.90
2022-11-05T05:59:02.021Z,18.40
2022-11-05T06:01:29.751Z,14.18
2022-11-05T06:03:57.731Z,19.50
2022-11-05T06:06:25.697Z,21.12
2022-11-05T06:08:55.225Z,19.40
2022-11-05T06:11:24.630Z,18.17
2022-11-05T06:13:52.426Z,17.42
2022-11-05T06:16:20.527Z,17.85
2022-11-05T06:18:49.557Z,17.85
2022-11-05T06:21:18.219Z,15.48
2022-11-05T06:23:48.848Z,15.57
2022-11-05T06:26:19.222Z,15.20
2022-11-05T06:28:47.118Z,16.58
2022-11-05T06:31:22.340Z,13.50
2022-11-05T06:34:00.246Z,14.23
2022-11-05T06:36:27.810Z,15.23
2022-11-05T06:38:55.628Z,20.80
2022-11-05T06:41:23.894Z,15.82
2022-11-05T06:43:51.656Z,19.62
2022-11-05T06:46:19.786Z,18.58
2022-11-05T06:48:48.644Z,21.12
2022-11-05T06:51:16.369Z,15.07
2022-11-05T06:53:43.974Z,16.85
2022-11-05T06:56:11.955Z,15.73
2022-11-05T06:58:39.531Z,16.92
2022-11-05T07:01:09.387Z,17.70
2022-11-05T07:03:38.703Z,14.57
2022-11-05T07:06:07.335Z,14.75
2022-11-05T07:08:36.403Z,16.67
2022-11-05T07:11:04.747Z,15.13
2022-11-05T07:13:33.441Z,15.32
2022-11-05T07:16:01.172Z,18.10
2022-11-05T07:18:29.166Z,11.27
2022-11-05T07:20:56.933Z,16.08
2022-11-05T07:23:24.790Z,13.20
2022-11-05T07:25:52.726Z,15.13
2022-11-05T07:28:20.449Z,13.62
2022-11-05T07:30:48.413Z,14.73
2022-11-05T07:33:16.781Z,16.05
2022-11-05T07:35:44.413Z,16.83
2022-11-05T07:38:12.114Z,15.50
2022-11-05T07:40:41.842Z,14.70
2022-11-05T07:43:44.527Z,13.90
2022-11-05T07:56:54.318Z,14.40
2022-11-05T08:00:42.602Z,14.32
2022-11-05T08:03:15.035Z,17.95
2022-11-05T08:06:02.867Z,17.10
2022-11-05T08:08:31.277Z,16.70
2022-11-05T08:11:06.761Z,18.23
2022-11-05T08:13:34.769Z,17.33
2022-11-05T08:16:03.157Z,19.98
2022-11-05T08:18:32.528Z,18.55
2022-11-05T08:21:03.158Z,15.35
2022-11-05T08:23:32.065Z,20.90
2022-11-05T08:26:03.737Z,22.37
2022-11-05T08:28:31.865Z,16.77
2022-11-05T08:30:59.821Z,15.73
2022-11-05T08:33:28.072Z,15.05
2022-11-05T08:35:55.724Z,15.23
2022-11-05T08:38:23.779Z,17.55
2022-11-05T08:40:56.528Z,12.75
2022-11-05T08:43:24.802Z,13.90
2022-11-05T08:45:52.717Z,17.02
2022-11-05T08:48:20.597Z,15.43
2022-11-05T08:50:49.449Z,14.98
2022-11-05T08:53:17.270Z,16.90
2022-11-05T08:55:46.696Z,17.87
2022-11-05T08:58:17.130Z,13.90
2022-11-05T09:00:47.622Z,15.40
2022-11-05T09:03:16.533Z,14.35
2022-11-05T09:05:44.448Z,12.68
2022-11-05T09:08:14.829Z,15.57
2022-11-05T09:10:43.673Z,13.62
2022-11-05T09:13:17.778Z,14.38
2022-11-05T09:15:50.261Z,13.98
2022-11-05T09:18:19.209Z,15.68
2022-11-05T09:20:47.789Z,15.13
2022-11-05T09:23:15.677Z,12.50
2022-11-05T09:25:43.885Z,15.32
2022-11-05T09:28:17.446Z,14.57
2022-11-05T09:30:48.134Z,20.73
2022-11-05T09:33:19.572Z,13.90
2022-11-05T09:38:16.981Z,17.75
2022-11-05T09:41:02.115Z,18.10
2022-11-05T09:44:00.630Z,21.65
2022-11-05T09:46:54.971Z,19.12
2022-11-05T09:49:52.149Z,21.02
2022-11-05T09:52:23.909Z,19.58
2022-11-05T09:54:54.347Z,19.08
2022-11-05T09:57:42.074Z,19.05
2022-11-05T10:00:16.842Z,12.18
2022-11-05T10:02:54.971Z,14.73
2022-11-05T10:05:25.517Z,22.75
2022-11-05T10:07:58.719Z,22.37
2022-11-05T10:10:43.346Z,12.63
2022-11-05T10:13:23.565Z,19.55
2022-11-05T10:16:02.837Z,13.85
2022-11-05T10:18:33.142Z,14.40
2022-11-05T10:21:01.335Z,15.13
2022-11-05T10:23:29.704Z,13.05
2022-11-05T10:26:05.440Z,15.40
2022-11-05T10:28:34.274Z,12.48
2022-11-05T10:31:09.970Z,13.73
2022-11-05T10:33:45.361Z,14.25
2022-11-05T10:36:21.340Z,13.52
2022-11-05T10:38:50.010Z,19.55
2022-11-05T10:41:47.219Z,14.40
2022-11-05T10:44:23.947Z,17.40
2022-11-05T10:47:20.873Z,16.83
2022-11-05T10:49:54.796Z,17.42
2022-11-05T10:52:39.147Z,13.77
2022-11-05T10:55:17.618Z,14.77
2022-11-05T10:57:48.190Z,12.82
2022-11-05T11:03:01.553Z,11.12
2022-11-05T11:05:38.166Z,11.27
2022-11-05T11:08:10.747Z,15.73
2022-11-05T11:10:51.852Z,22.85
2022-11-05T11:13:29.338Z,19.40
2022-11-05T11:16:16.062Z,15.57
2022-11-05T11:18:44.256Z,16.52
2022-11-05T11:21:19.655Z,16.08
2022-11-05T11:24:04.949Z,16.30
2022-11-05T11:26:36.528Z,15.23
2022-11-05T11:29:16.381Z,15.30
2022-11-05T11:31:44.228Z,14.30
2022-11-05T11:34:14.986Z,15.50
2022-11-05T11:36:48.500Z,17.05
2022-11-05T11:39:24.765Z,14.57
2022-11-05T11:41:55.553Z,18.12
2022-11-05T11:47:05.042Z,18.42
2022-11-05T11:49:42.151Z,20.50
2022-11-05T11:52:14.600Z,17.67
2022-11-05T11:54:42.927Z,18.33
2022-11-05T11:57:23.983Z,16.87
2022-11-05T12:00:08.294Z,25.33
2022-11-05T12:03:04.189Z,21.10
2022-11-05T12:05:37.708Z,22.55
2022-11-05T12:08:14.367Z,23.95
2022-11-05T12:10:54.422Z,19.87
2022-11-05T12:13:28.583Z,19.77
2022-11-05T12:16:19.466Z,16.08
2022-11-05T12:19:00.279Z,16.05
2022-11-05T12:22:11.461Z,20.02
2022-11-05T12:25:21.521Z,21.35
2022-11-05T12:27:55.226Z,19.03
2022-11-05T12:30:23.496Z,18.35
2022-11-05T12:33:20.687Z,15.40
2022-11-05T12:36:02.774Z,23.45
2022-11-05T12:38:47.487Z,17.80
2022-11-05T12:41:27.257Z,17.83
2022-11-05T12:44:10.224Z,15.00
2022-11-05T12:46:54.047Z,15.90
2022-11-05T12:49:36.320Z,16.67
2022-11-05T12:52:12.839Z,17.20
2022-11-05T12:55:01.092Z,20.50
2022-11-05T12:57:32.219Z,15.57
2022-11-05T13:00:16.639Z,17.87
2022-11-05T13:03:20.258Z,20.58
2022-11-05T13:06:17.778Z,21.08
2022-11-05T13:09:02.155Z,16.85
2022-11-05T13:11:54.909Z,18.62
2022-11-05T13:17:03.462Z,18.10
2022-11-05T13:19:48.881Z,17.23
2022-11-05T13:22:20.322Z,20.30
2022-11-05T13:24:57.273Z,19.48
2022-11-05T13:27:30.990Z,17.52
2022-11-05T13:30:07.550Z,24.23
2022-11-05T13:32:39.406Z,22.15
2022-11-05T13:35:16.159Z,21.23
2022-11-05T13:38:07.503Z,16.37
2022-11-05T13:43:23.309Z,16.65
2022-11-05T13:46:05.431Z,19.67
2022-11-05T13:49:25.728Z,19.73
2022-11-05T13:52:24.455Z,17.25
2022-11-05T13:55:20.136Z,30.17
2022-11-05T13:58:00.644Z,24.98
2022-11-05T14:00:34.196Z,20.77
2022-11-05T14:03:17.268Z,21.67
2022-11-05T14:05:57.073Z,20.62
2022-11-05T14:08:29.954Z,28.02
2022-11-05T14:11:14.881Z,23.83
2022-11-05T14:13:46.729Z,27.58
2022-11-05T14:19:33.299Z,21.45
2022-11-05T14:22:33.461Z,24.02
2022-11-05T14:25:22.705Z,25.12
2022-11-05T14:27:52.838Z,19.87
2022-11-05T14:30:49.910Z,24.33
2022-11-05T14:33:27.400Z,18.85
2022-11-05T14:36:20.651Z,23.10
2022-11-05T14:39:00.046Z,20.90
2022-11-05T14:41:32.271Z,22.45
2022-11-05T14:44:05.689Z,26.80
2022-11-05T14:46:44.749Z,22.67
2022-11-05T14:49:20.949Z,22.17
2022-11-05T14:51:52.690Z,26.77
2022-11-05T14:54:53.935Z,25.02
2022-11-05T14:57:42.025Z,22.55
2022-11-05T15:00:31.619Z,23.87
2022-11-05T15:03:25.504Z,26.25
2022-11-05T15:06:25.245Z,24.17
2022-11-05T15:09:05.680Z,26.80
2022-11-05T15:11:46.887Z,28.48
2022-11-05T15:14:19.249Z,33.67
2022-11-05T15:17:05.455Z,34.92
2022-11-05T15:19:37.649Z,35.42
2022-11-05T15:22:19.750Z,36.20
2022-11-05T15:24:49.682Z,33.05
2022-11-05T15:27:36.876Z,32.10
2022-11-05T15:31:24.915Z,32.28
2022-11-05T15:34:30.887Z,29.80
2022-11-05T15:37:26.949Z,25.73
2022-11-05T15:39:56.580Z,34.47
2022-11-05T15:42:27.444Z,32.63
2022-11-05T15:44:58.695Z,35.53
2022-11-05T15:47:55.384Z,34.63
2022-11-05T15:50:27.851Z,38.58
2022-11-05T15:56:36.881Z,38.10
2022-11-05T15:59:22.578Z,37.47
2022-11-05T16:02:19.513Z,38.50
2022-11-05T16:04:54.511Z,36.42
2022-11-05T16:07:28.936Z,35.40
2022-11-05T16:10:30.768Z,37.83
2022-11-05T16:13:42.251Z,38.47
2022-11-05T16:16:33.614Z,43.87
2022-11-05T16:19:02.968Z,37.78
2022-11-05T16:21:31.779Z,43.38
2022-11-05T16:24:01.514Z,54.15
2022-11-05T16:29:38.542Z,50.10
2022-11-05T16:32:16.631Z,50.80
2022-11-05T16:34:52.396Z,51.20
2022-11-05T16:37:24.545Z,46.15
2022-11-05T16:39:56.607Z,43.72
2022-11-05T16:42:24.848Z,47.25
2022-11-05T16:44:55.829Z,48.05
2022-11-05T16:47:26.122Z,42.67
2022-11-05T16:49:59.596Z,40.40
2022-11-05T16:52:30.126Z,38.65
2022-11-05T16:54:58.630Z,36.03
2022-11-05T16:57:32.274Z,40.40
2022-11-05T17:00:02.548Z,35.78
2022-11-05T17:02:32.149Z,36.58
2022-11-05T17:05:00.794Z,31.55
2022-11-05T17:07:29.190Z,36.85
2022-11-05T17:09:58.030Z,33.58
2022-11-05T17:12:29.850Z,37.17
2022-11-05T17:14:58.785Z,32.88
2022-11-05T17:17:29.047Z,32.90
2022-11-05T17:19:57.539Z,31.02
2022-11-05T17:22:27.491Z,30.30
2022-11-05T17:24:56.150Z,31.65
2022-11-05T17:27:24.201Z,27.55
2022-11-05T17:29:52.648Z,28.48
2022-11-05T17:32:20.626Z,25.40
2022-11-05T17:34:48.782Z,24.63
2022-11-05T17:37:17.384Z,26.65
2022-11-05T17:39:46.492Z,30.65
2022-11-05T17:42:14.649Z,27.95
2022-11-05T17:44:43.631Z,26.02
2022-11-05T17:47:11.482Z,28.27
2022-11-05T17:49:39.721Z,26.50
2022-11-05T17:52:09.700Z,25.77
2022-11-05T17:54:38.385Z,28.77
2022-11-05T17:57:07.709Z,32.35
2022-11-05T17:59:36.361Z,34.65
2022-11-05T18:02:04.785Z,37.88
2022-11-05T18:04:33.465Z,36.33
2022-11-05T18:07:01.520Z,41.58
2022-11-05T18:09:29.867Z,34.70
2022-11-05T18:11:59.069Z,37.00
2022-11-05T18:14:27.321Z,35.28
2022-11-05T18:17:00.162Z,37.13
2022-11-05T18:19:29.786Z,33.97
2022-11-05T18:21:58.001Z,34.30
2022-11-05T18:24:25.881Z,34.35
2022-11-05T18:26:54.669Z,29.83
2022-11-05T18:29:22.561Z,35.38
2022-11-05T18:31:51.490Z,30.77
2022-11-05T18:34:19.826Z,27.37
2022-11-05T18:36:53.489Z,27.55
2022-11-05T18:39:24.985Z,23.70
2022-11-05T18:41:52.911Z,23.67
2022-11-05T18:44:22.993Z,21.08
2022-11-05T18:46:57.965Z,23.42
2022-11-05T18:49:27.467Z,25.67
2022-11-05T18:51:55.713Z,20.35
2022-11-05T18:54:24.159Z,18.35
2022-11-05T18:56:52.080Z,12.48
2022-11-05T18:59:39.004Z,11.32
2022-11-05T19:02:08.909Z,10.82
2022-11-05T19:04:37.828Z,8.55
2022-11-05T19:07:07.510Z,9.07
2022-11-05T19:09:36.261Z,12.25
2022-11-05T19:12:07.436Z,9.35
2022-11-05T19:14:35.781Z,8.48
2022-11-05T19:17:06.912Z,9.80
2022-11-05T19:22:04.539Z,8.00
2022-11-05T19:24:32.268Z,6.28
2022-11-05T19:27:00.643Z,7.60
2022-11-05T19:29:29.057Z,4.93
2022-11-05T19:31:57.089Z,6.18
2022-11-05T19:34:25.889Z,5.95
2022-11-05T19:36:56.593Z,6.53
2022-11-05T19:39:26.092Z,7.65
2022-11-05T19:41:58.920Z,8.43
2022-11-05T19:44:31.893Z,7.75
2022-11-05T19:47:00.061Z,7.78
2022-11-05T19:49:28.578Z,9.70
2022-11-05T19:51:57.251Z,6.07
2022-11-05T19:54:25.381Z,8.18
2022-11-05T19:56:53.819Z,7.37
2022-11-05T19:59:22.060Z,5.20
2022-11-05T20:01:50.538Z,5.57
2022-11-05T20:04:20.986Z,5.45
2022-11-05T20:06:50.227Z,5.37
2022-11-05T20:09:22.921Z,5.50
2022-11-05T20:11:54.895Z,6.57
2022-11-05T20:14:24.376Z,7.30
2022-11-05T20:16:54.338Z,8.88
2022-11-05T20:19:23.437Z,6.55
2022-11-05T20:21:52.366Z,9.88
2022-11-05T20:24:25.047Z,5.87
2022-11-05T20:27:11.852Z,4.25
2022-11-05T20:29:50.798Z,4.43
2022-11-05T20:32:20.054Z,5.25
2022-11-05T20:34:48.593Z,5.00
2022-11-05T20:37:17.451Z,9.88
2022-11-05T20:39:46.513Z,5.62
2022-11-05T20:42:14.920Z,3.95
2022-11-05T20:44:43.543Z,4.20
2022-11-05T20:47:11.824Z,4.10
2022-11-05T20:49:40.150Z,5.50
2022-11-05T20:52:17.504Z,22.65
2022-11-05T20:54:46.712Z,5.28
2022-11-05T20:57:15.075Z,4.10
2022-11-05T20:59:42.943Z,4.03
2022-11-05T21:02:13.015Z,3.62
2022-11-05T21:04:41.246Z,5.05
2022-11-05T21:07:09.559Z,3.95
2022-11-05T21:09:38.363Z,4.28
2022-11-05T21:12:26.998Z,5.87
2022-11-05T21:15:01.674Z,5.18
2022-11-05T21:17:31.748Z,8.68
2022-11-05T21:20:06.523Z,3.58
2022-11-05T21:22:35.873Z,3.97
2022-11-05T21:25:05.222Z,2.80
2022-11-05T21:27:53.214Z,3.05
2022-11-05T21:30:26.426Z,4.28
2022-11-05T21:33:15.843Z,2.35
2022-11-05T21:35:47.305Z,3.53
2022-11-05T21:38:17.358Z,7.15
2022-11-05T21:40:45.749Z,2.83
2022-11-05T21:43:14.944Z,2.53
2022-11-05T21:45:45.367Z,3.42
2022-11-05T21:51:02.487Z,2.37
2022-11-05T21:53:49.616Z,2.78
2022-11-05T21:56:43.446Z,4.18
2022-11-05T21:59:34.315Z,5.90
2022-11-05T22:02:24.147Z,3.62
2022-11-05T22:04:53.793Z,3.83
2022-11-05T22:07:24.072Z,4.20
2022-11-05T22:12:21.925Z,2.55
2022-11-05T22:15:09.997Z,2.72
2022-11-05T22:17:42.559Z,4.03
2022-11-05T22:20:14.014Z,2.70
2022-11-05T22:23:07.363Z,2.97
2022-11-05T22:25:38.731Z,3.95
2022-11-05T22:28:08.221Z,2.50
2022-11-05T22:30:36.735Z,5.90
2022-11-05T22:33:04.738Z,4.37
2022-11-05T22:35:34.910Z,3.53
2022-11-05T22:38:03.465Z,5.32
2022-11-05T22:41:00.454Z,4.43
2022-11-05T22:43:28.457Z,3.97
2022-11-05T22:46:03.208Z,2.92
2022-11-05T22:48:51.520Z,2.42
2022-11-05T22:51:26.986Z,2.60
2022-11-05T22:53:55.237Z,2.40
2022-11-05T22:56:28.514Z,1.95
2022-11-05T22:58:57.334Z,5.53
2022-11-05T23:01:26.356Z,2.80
2022-11-05T23:03:56.667Z,5.55
2022-11-05T23:06:47.253Z,2.95
2022-11-05T23:09:52.770Z,3.37
2022-11-05T23:12:31.103Z,2.08
2022-11-05T23:15:00.789Z,2.60
2022-11-05T23:18:09.578Z,2.10
2022-11-05T23:20:59.910Z,2.65
2022-11-05T23:23:48.589Z,3.60
2022-11-05T23:26:35.031Z,1.80
2022-11-05T23:29:07.105Z,2.08
2022-11-05T23:31:53.957Z,1.98
2022-11-05T23:34:28.044Z,2.92
2022-11-05T23:37:16.922Z,2.70
2022-11-05T23:39:47.241Z,2.47
2022-11-05T23:42:34.220Z,1.92
2022-11-05T23:45:24.647Z,1.70
2022-11-05T23:48:12.000Z,2.12
2022-11-05T23:50:41.514Z,1.75
2022-11-05T23:53:31.413Z,1.83
2022-11-05T23:56:07.135Z,1.67
2022-11-05T23:58:37.036Z,1.92
